Terminal Aerodrome Forecast
Issued by NWS Bismarck, ND

Home | Current Version | Previous Version | Graphics & Text | Print | Product List | Glossary On
Versions: 1 2 3 4 5 6 7 8 9 10 11 12 13 14 15 16 17 18 19
000
FTUS43 KBIS 201200 AAA
TAFBIS
TAF AMD
KBIS 201253Z 2013/2112 10003KT 1SM BR OVC002
     FM201700 18005KT P6SM VCSH SCT005 BKN100
     FM202000 21007KT P6SM VCSH SCT050 BKN070
     FM210300 25006KT P6SM SCT100 BKN250=

USA.gov is the U.S. government's official web portal to all federal, state and local government web resources and services.